createdAt,value
2023-04-29T00:01:11.638Z,93771.50
2023-04-29T00:06:16.276Z,93711.06
2023-04-29T00:11:19.918Z,93764.88
2023-04-29T00:16:23.675Z,93753.97
2023-04-29T00:21:27.767Z,93761.78
2023-04-29T00:26:32.250Z,93755.56
2023-04-29T00:31:37.634Z,93761.50
2023-04-29T00:36:42.005Z,93744.97
2023-04-29T00:41:45.561Z,93711.47
2023-04-29T00:46:49.518Z,93756.72
2023-04-29T00:51:54.913Z,93753.97
2023-04-29T00:57:01.858Z,93715.06
2023-04-29T01:02:05.909Z,93747.56
2023-04-29T01:07:17.223Z,93728.75
2023-04-29T01:12:27.260Z,93726.31
2023-04-29T01:17:40.364Z,93728.13
2023-04-29T01:22:44.629Z,93702.53
2023-04-29T01:28:15.731Z,93746.03
2023-04-29T01:34:11.278Z,93747.44
2023-04-29T01:39:33.425Z,93749.31
2023-04-29T01:44:48.137Z,93741.75
2023-04-29T01:49:53.375Z,93739.34
2023-04-29T01:54:57.927Z,93736.16
2023-04-29T02:00:07.110Z,93708.75
2023-04-29T02:05:16.045Z,93700.94
2023-04-29T02:10:28.487Z,93721.88
2023-04-29T02:15:43.969Z,93728.94
2023-04-29T02:20:48.002Z,93721.84
2023-04-29T02:25:52.385Z,93701.75
2023-04-29T02:30:55.972Z,93711.94
2023-04-29T02:35:59.972Z,93678.13
2023-04-29T02:41:03.618Z,93710.69
2023-04-29T02:46:06.656Z,93709.03
2023-04-29T02:51:10.390Z,93685.16
2023-04-29T02:56:14.529Z,93703.16
2023-04-29T03:01:18.194Z,93674.03
2023-04-29T03:06:21.667Z,93695.22
2023-04-29T03:11:27.125Z,93679.31
2023-04-29T03:16:31.970Z,93679.91
2023-04-29T03:21:35.761Z,93685.72
2023-04-29T03:26:39.696Z,93675.09
2023-04-29T03:31:43.801Z,93680.25
2023-04-29T03:36:47.796Z,93688.75
2023-04-29T03:41:51.919Z,93704.69
2023-04-29T03:46:55.698Z,93710.84
2023-04-29T03:52:00.814Z,93703.91
2023-04-29T03:57:04.905Z,93693.56
2023-04-29T04:02:08.796Z,93689.16
2023-04-29T04:07:13.053Z,93648.97
2023-04-29T04:12:36.103Z,93700.34
2023-04-29T04:17:40.174Z,93693.22
2023-04-29T04:22:43.725Z,93683.34
2023-04-29T04:28:07.684Z,93674.75
2023-04-29T04:33:27.850Z,93704.09
2023-04-29T04:38:33.277Z,93686.59
2023-04-29T04:43:41.727Z,93706.53
2023-04-29T04:48:52.518Z,93637.06
2023-04-29T04:53:57.138Z,93696.44
2023-04-29T04:59:02.959Z,93715.50
2023-04-29T05:04:06.462Z,93685.91
2023-04-29T05:09:10.147Z,93704.09
2023-04-29T05:14:13.657Z,93713.16
2023-04-29T05:19:17.326Z,93701.47
2023-04-29T05:24:22.261Z,93699.53
2023-04-29T05:29:27.536Z,93708.88
2023-04-29T05:34:35.328Z,93708.03
2023-04-29T05:39:39.745Z,93701.63
2023-04-29T05:44:49.262Z,93714.00
2023-04-29T05:49:53.133Z,93693.41
2023-04-29T05:54:57.030Z,93704.00
2023-04-29T06:00:01.597Z,93696.13
2023-04-29T06:05:06.005Z,93705.19
2023-04-29T06:10:22.154Z,93726.44
2023-04-29T06:15:29.153Z,93700.41
2023-04-29T06:20:33.673Z,93654.91
2023-04-29T06:25:37.468Z,93653.66
2023-04-29T06:30:43.674Z,93676.06
2023-04-29T06:35:50.204Z,93692.22
2023-04-29T06:41:19.360Z,93674.03
2023-04-29T06:46:41.353Z,93671.72
2023-04-29T06:51:51.857Z,93685.03
2023-04-29T06:56:55.800Z,93666.72
2023-04-29T07:01:59.099Z,93667.00
2023-04-29T07:07:03.451Z,93662.41
2023-04-29T07:12:07.108Z,93689.06
2023-04-29T07:17:12.059Z,93686.47
2023-04-29T07:22:18.842Z,93661.78
2023-04-29T07:27:22.188Z,93647.00
2023-04-29T07:32:25.950Z,93686.84
2023-04-29T07:37:30.343Z,93677.28
2023-04-29T07:42:33.467Z,93637.50
2023-04-29T07:47:37.874Z,93641.25
2023-04-29T07:52:42.201Z,93627.94
2023-04-29T07:57:46.363Z,93676.81
2023-04-29T08:02:57.462Z,93701.66
2023-04-29T08:08:01.882Z,93660.00
2023-04-29T08:13:06.268Z,93682.84
2023-04-29T08:18:09.477Z,93653.16
2023-04-29T08:23:13.109Z,93700.22
2023-04-29T08:28:16.335Z,93678.31
2023-04-29T08:33:19.957Z,93592.81
2023-04-29T08:38:24.406Z,93615.91
2023-04-29T08:43:29.227Z,93703.34
2023-04-29T08:48:34.051Z,93627.06
2023-04-29T08:53:38.344Z,93715.91
2023-04-29T08:58:42.643Z,93707.63
2023-04-29T09:03:55.758Z,93684.88
2023-04-29T09:09:00.694Z,93676.28
2023-04-29T09:14:08.457Z,93629.38
2023-04-29T09:19:12.024Z,93632.38
2023-04-29T09:24:27.765Z,93671.47
2023-04-29T09:29:33.218Z,93702.66
2023-04-29T09:34:39.992Z,93626.78
2023-04-29T09:39:43.540Z,93605.50
2023-04-29T09:44:47.094Z,93579.28
2023-04-29T09:49:50.660Z,93641.03
2023-04-29T09:55:07.078Z,93620.63
2023-04-29T10:00:12.302Z,93614.63
2023-04-29T10:05:17.393Z,93638.38
2023-04-29T10:10:24.784Z,93655.19
2023-04-29T10:15:43.181Z,93671.38
2023-04-29T10:20:48.645Z,93602.38
2023-04-29T10:25:53.910Z,93659.78
2023-04-29T10:31:01.407Z,93586.44
2023-04-29T10:36:05.516Z,93621.84
2023-04-29T10:41:17.756Z,93574.69
2023-04-29T10:46:29.140Z,93602.97
2023-04-29T10:51:42.473Z,93615.22
2023-04-29T10:56:52.184Z,93624.19
2023-04-29T11:01:56.108Z,93600.13
2023-04-29T11:06:59.803Z,93589.72
2023-04-29T11:12:05.865Z,93499.44
2023-04-29T11:17:17.091Z,93578.75
2023-04-29T11:22:27.341Z,93602.22
2023-04-29T11:27:35.274Z,93512.81
2023-04-29T11:32:41.292Z,93601.53
2023-04-29T11:37:46.512Z,93549.09
2023-04-29T11:42:51.465Z,93579.22
2023-04-29T11:47:56.042Z,93530.72
2023-04-29T11:52:59.948Z,93570.97
2023-04-29T11:58:05.801Z,93490.31
2023-04-29T12:03:22.648Z,93531.94
2023-04-29T12:08:29.056Z,93526.56
2023-04-29T12:13:35.843Z,93523.63
2023-04-29T12:18:40.326Z,93558.97
2023-04-29T12:23:43.413Z,93545.53
2023-04-29T12:28:49.323Z,93564.81
2023-04-29T12:33:55.712Z,93524.88
2023-04-29T12:39:00.528Z,93519.75
2023-04-29T12:44:06.171Z,93508.50
2023-04-29T12:49:09.310Z,93484.88
2023-04-29T12:54:12.948Z,93505.03
2023-04-29T12:59:17.491Z,93509.75
2023-04-29T13:04:20.805Z,93438.75
2023-04-29T13:09:24.849Z,93467.13
2023-04-29T13:14:29.265Z,93458.00
2023-04-29T13:19:48.134Z,93544.25
2023-04-29T13:24:54.831Z,93448.81
2023-04-29T13:29:58.632Z,93521.56
2023-04-29T13:35:02.357Z,93517.44
2023-04-29T13:40:08.265Z,93418.25
2023-04-29T13:45:15.547Z,93450.97
2023-04-29T13:51:03.969Z,93479.13
2023-04-29T14:01:05.947Z,93435.25
2023-04-29T14:06:16.846Z,93471.00
2023-04-29T14:11:21.461Z,93485.09
2023-04-29T14:16:24.408Z,93484.66
2023-04-29T14:21:28.745Z,93453.06
2023-04-29T14:26:32.386Z,93399.47
2023-04-29T14:31:38.534Z,93459.28
2023-04-29T14:36:43.833Z,93443.66
2023-04-29T14:41:48.989Z,93404.88
2023-04-29T14:46:52.651Z,93391.28
2023-04-29T14:51:56.080Z,93453.09
2023-04-29T14:57:00.269Z,93379.25
2023-04-29T15:02:04.533Z,93430.91
2023-04-29T15:07:08.192Z,93403.34
2023-04-29T15:12:12.060Z,93417.41
2023-04-29T15:17:15.846Z,93441.72
2023-04-29T15:22:19.360Z,93390.03
2023-04-29T15:27:22.975Z,93370.78
2023-04-29T15:32:31.708Z,93401.69
2023-04-29T15:37:35.816Z,93374.53
2023-04-29T15:42:39.779Z,93394.84
2023-04-29T15:47:43.469Z,93428.13
2023-04-29T15:52:47.137Z,93394.09
2023-04-29T15:57:51.756Z,93440.56
2023-04-29T16:02:56.146Z,93415.19
2023-04-29T16:07:59.673Z,93421.94
2023-04-29T16:13:04.653Z,93424.94
2023-04-29T16:18:09.201Z,93418.34
2023-04-29T16:23:12.494Z,93446.88
2023-04-29T16:28:16.508Z,93444.56
2023-04-29T16:33:20.392Z,93432.78
2023-04-29T16:38:24.428Z,93445.44
2023-04-29T16:43:27.892Z,93417.69
2023-04-29T16:48:31.726Z,93414.78
2023-04-29T16:53:35.117Z,93442.94
2023-04-29T16:58:39.982Z,93427.63
2023-04-29T17:03:44.501Z,93361.16
2023-04-29T17:08:50.784Z,93412.34
2023-04-29T17:13:56.004Z,93391.69
2023-04-29T17:19:00.860Z,93399.59
2023-04-29T17:24:04.924Z,93380.78
2023-04-29T17:29:09.218Z,93351.59
2023-04-29T17:34:33.666Z,93460.28
2023-04-29T17:39:37.063Z,93368.50
2023-04-29T17:44:40.728Z,93462.72
2023-04-29T17:49:47.107Z,93459.31
2023-04-29T17:54:50.319Z,93444.81
2023-04-29T17:59:53.653Z,93459.41
2023-04-29T18:04:56.905Z,93463.69
2023-04-29T18:09:59.900Z,93447.50
2023-04-29T18:15:06.390Z,93462.19
2023-04-29T18:20:10.615Z,93447.00
2023-04-29T18:25:16.732Z,93480.53
2023-04-29T18:30:20.228Z,93480.13
2023-04-29T18:35:23.988Z,93495.84
2023-04-29T18:40:27.464Z,93491.94
2023-04-29T18:45:31.399Z,93451.72
2023-04-29T18:50:35.013Z,93472.00
2023-04-29T18:55:38.142Z,93462.47
2023-04-29T19:00:42.262Z,93439.34
2023-04-29T19:05:46.188Z,93455.53
2023-04-29T19:10:50.383Z,93460.63
2023-04-29T19:15:55.633Z,93474.72
2023-04-29T19:20:59.361Z,93469.38
2023-04-29T19:26:03.021Z,93485.00
2023-04-29T19:31:06.544Z,93486.06
2023-04-29T19:36:11.769Z,93461.94
2023-04-29T19:41:16.050Z,93482.31
2023-04-29T19:46:19.897Z,93451.53
2023-04-29T19:51:23.917Z,93496.31
2023-04-29T19:56:28.350Z,93492.72
2023-04-29T20:01:32.174Z,93475.84
2023-04-29T20:06:37.809Z,93492.66
2023-04-29T20:11:41.619Z,93481.75
2023-04-29T20:16:45.666Z,93451.72
2023-04-29T20:21:49.583Z,93475.66
2023-04-29T20:26:53.574Z,93449.75
2023-04-29T20:31:57.670Z,93393.53
2023-04-29T20:37:01.698Z,93440.25
2023-04-29T20:42:07.186Z,93454.78
2023-04-29T20:47:11.184Z,93452.28
2023-04-29T20:52:14.721Z,93416.72
2023-04-29T20:57:18.338Z,93434.88
2023-04-29T21:02:21.833Z,93422.06
2023-04-29T21:07:26.001Z,93418.69
2023-04-29T21:12:30.350Z,93431.34
2023-04-29T21:17:34.458Z,93385.38
2023-04-29T21:22:37.735Z,93367.44
2023-04-29T21:27:41.686Z,93415.81
2023-04-29T21:32:48.515Z,93436.78
2023-04-29T21:37:52.349Z,93430.41
2023-04-29T21:42:58.192Z,93427.72
2023-04-29T21:48:16.097Z,93430.81
2023-04-29T21:53:20.380Z,93407.34
2023-04-29T21:58:24.401Z,93370.81
2023-04-29T22:03:28.759Z,93392.72
2023-04-29T22:08:32.572Z,93334.00
2023-04-29T22:13:36.367Z,93407.63
2023-04-29T22:18:39.734Z,93416.72
2023-04-29T22:23:43.603Z,93323.34
2023-04-29T22:28:47.076Z,93336.06
2023-04-29T22:33:51.557Z,93416.06
2023-04-29T22:38:55.272Z,93406.97
2023-04-29T22:43:59.021Z,93411.03
2023-04-29T22:49:03.312Z,93396.72
2023-04-29T22:54:08.348Z,93393.41
2023-04-29T22:59:12.850Z,93356.81
2023-04-29T23:04:16.477Z,93367.88
2023-04-29T23:09:20.476Z,93298.66
2023-04-29T23:14:24.024Z,93302.03
2023-04-29T23:19:27.479Z,93370.34
2023-04-29T23:24:31.141Z,93372.69
2023-04-29T23:29:34.815Z,93380.84
2023-04-29T23:34:38.640Z,93367.72
2023-04-29T23:39:42.213Z,93365.38
2023-04-29T23:44:46.789Z,93346.09
2023-04-29T23:49:50.675Z,93318.56
2023-04-29T23:54:53.775Z,93327.59
2023-04-29T23:59:57.320Z,93325.97
